sensor_id;sensor_type;location;lat;lon;timestamp;temperature;humidity
23697;DHT22;48864;50.820;4.400;2022-10-22T00:01:14;16.10;99.90
23697;DHT22;48864;50.820;4.400;2022-10-22T00:03:40;16.10;99.90
23697;DHT22;48864;50.820;4.400;2022-10-22T00:06:06;16.10;99.90
23697;DHT22;48864;50.820;4.400;2022-10-22T00:08:31;16.00;99.90
23697;DHT22;48864;50.820;4.400;2022-10-22T00:10:57;16.10;99.90
23697;DHT22;48864;50.820;4.400;2022-10-22T00:13:23;16.00;99.90
23697;DHT22;48864;50.820;4.400;2022-10-22T00:15:49;16.00;99.90
23697;DHT22;48864;50.820;4.400;2022-10-22T00:18:15;15.90;99.90
23697;DHT22;48864;50.820;4.400;2022-10-22T00:20:41;15.90;99.90
23697;DHT22;48864;50.820;4.400;2022-10-22T00:23:06;15.90;99.90
23697;DHT22;48864;50.820;4.400;2022-10-22T00:25:34;16.00;99.90
23697;DHT22;48864;50.820;4.400;2022-10-22T00:28:00;16.00;99.90
23697;DHT22;48864;50.820;4.400;2022-10-22T00:30:26;15.90;99.90
23697;DHT22;48864;50.820;4.400;2022-10-22T00:32:51;15.80;99.90
23697;DHT22;48864;50.820;4.400;2022-10-22T00:35:19;15.80;99.90
23697;DHT22;48864;50.820;4.400;2022-10-22T00:37:44;15.90;99.90
23697;DHT22;48864;50.820;4.400;2022-10-22T00:40:10;15.90;99.90
23697;DHT22;48864;50.820;4.400;2022-10-22T00:42:36;15.70;99.90
23697;DHT22;48864;50.820;4.400;2022-10-22T00:47:35;15.90;99.90
23697;DHT22;48864;50.820;4.400;2022-10-22T00:50:05;15.90;99.90
23697;DHT22;48864;50.820;4.400;2022-10-22T00:52:31;15.90;99.90
23697;DHT22;48864;50.820;4.400;2022-10-22T00:54:57;15.80;99.90
23697;DHT22;48864;50.820;4.400;2022-10-22T00:57:24;15.90;99.90
23697;DHT22;48864;50.820;4.400;2022-10-22T00:59:49;15.90;99.90
23697;DHT22;48864;50.820;4.400;2022-10-22T01:02:15;16.00;99.90
23697;DHT22;48864;50.820;4.400;2022-10-22T01:04:41;15.80;99.90
23697;DHT22;48864;50.820;4.400;2022-10-22T01:07:19;15.90;99.90
23697;DHT22;48864;50.820;4.400;2022-10-22T01:10:04;15.80;99.90
23697;DHT22;48864;50.820;4.400;2022-10-22T01:12:42;15.80;99.90
23697;DHT22;48864;50.820;4.400;2022-10-22T01:18:09;15.90;99.90
23697;DHT22;48864;50.820;4.400;2022-10-22T01:29:03;15.50;99.90
23697;DHT22;48864;50.820;4.400;2022-10-22T01:31:35;15.60;99.90
23697;DHT22;48864;50.820;4.400;2022-10-22T01:34:02;15.70;99.90
23697;DHT22;48864;50.820;4.400;2022-10-22T01:36:30;15.80;99.90
23697;DHT22;48864;50.820;4.400;2022-10-22T01:39:00;15.60;99.90
23697;DHT22;48864;50.820;4.400;2022-10-22T01:41:27;15.80;99.90
23697;DHT22;48864;50.820;4.400;2022-10-22T01:43:53;15.80;99.90
23697;DHT22;48864;50.820;4.400;2022-10-22T01:46:21;15.90;99.90
23697;DHT22;48864;50.820;4.400;2022-10-22T01:52:01;16.00;99.90
23697;DHT22;48864;50.820;4.400;2022-10-22T01:54:52;16.00;99.90
23697;DHT22;48864;50.820;4.400;2022-10-22T01:57:42;15.80;99.90
23697;DHT22;48864;50.820;4.400;2022-10-22T02:00:13;15.90;99.90
23697;DHT22;48864;50.820;4.400;2022-10-22T02:03:12;15.70;99.90
23697;DHT22;48864;50.820;4.400;2022-10-22T02:08:17;15.50;99.90
23697;DHT22;48864;50.820;4.400;2022-10-22T02:10:46;15.50;99.90
23697;DHT22;48864;50.820;4.400;2022-10-22T02:13:16;15.40;99.90
23697;DHT22;48864;50.820;4.400;2022-10-22T02:15:45;15.40;99.90
23697;DHT22;48864;50.820;4.400;2022-10-22T02:18:12;15.40;99.90
23697;DHT22;48864;50.820;4.400;2022-10-22T02:20:40;15.50;99.90
23697;DHT22;48864;50.820;4.400;2022-10-22T02:23:07;15.30;99.90
23697;DHT22;48864;50.820;4.400;2022-10-22T02:25:59;15.20;99.90
23697;DHT22;48864;50.820;4.400;2022-10-22T02:28:45;15.30;99.90
23697;DHT22;48864;50.820;4.400;2022-10-22T02:31:23;15.30;99.90
23697;DHT22;48864;50.820;4.400;2022-10-22T02:33:52;15.30;99.90
23697;DHT22;48864;50.820;4.400;2022-10-22T02:36:19;15.30;99.90
23697;DHT22;48864;50.820;4.400;2022-10-22T02:38:46;15.40;99.90
23697;DHT22;48864;50.820;4.400;2022-10-22T02:41:15;15.40;99.90
23697;DHT22;48864;50.820;4.400;2022-10-22T02:43:43;15.40;99.90
23697;DHT22;48864;50.820;4.400;2022-10-22T02:46:10;15.40;99.90
23697;DHT22;48864;50.820;4.400;2022-10-22T02:48:36;15.40;99.90
23697;DHT22;48864;50.820;4.400;2022-10-22T02:51:02;15.40;99.90
23697;DHT22;48864;50.820;4.400;2022-10-22T02:53:28;15.30;99.90
23697;DHT22;48864;50.820;4.400;2022-10-22T02:55:53;15.30;99.90
23697;DHT22;48864;50.820;4.400;2022-10-22T02:58:19;15.30;99.90
23697;DHT22;48864;50.820;4.400;2022-10-22T03:00:44;15.50;99.90
23697;DHT22;48864;50.820;4.400;2022-10-22T03:03:10;15.50;99.90
23697;DHT22;48864;50.820;4.400;2022-10-22T03:05:35;15.40;99.90
23697;DHT22;48864;50.820;4.400;2022-10-22T03:08:01;15.20;99.90
23697;DHT22;48864;50.820;4.400;2022-10-22T03:10:26;15.20;99.90
23697;DHT22;48864;50.820;4.400;2022-10-22T03:12:52;15.20;99.90
23697;DHT22;48864;50.820;4.400;2022-10-22T03:15:18;15.30;99.90
23697;DHT22;48864;50.820;4.400;2022-10-22T03:17:43;15.30;99.90
23697;DHT22;48864;50.820;4.400;2022-10-22T03:20:09;15.30;99.90
23697;DHT22;48864;50.820;4.400;2022-10-22T03:22:35;15.30;99.90
23697;DHT22;48864;50.820;4.400;2022-10-22T03:25:08;15.20;99.90
23697;DHT22;48864;50.820;4.400;2022-10-22T03:27:36;15.20;99.90
23697;DHT22;48864;50.820;4.400;2022-10-22T03:30:05;15.20;99.90
23697;DHT22;48864;50.820;4.400;2022-10-22T03:32:31;15.20;99.90
23697;DHT22;48864;50.820;4.400;2022-10-22T03:34:56;15.20;99.90
23697;DHT22;48864;50.820;4.400;2022-10-22T03:37:23;15.10;99.90
23697;DHT22;48864;50.820;4.400;2022-10-22T03:39:49;15.10;99.90
23697;DHT22;48864;50.820;4.400;2022-10-22T03:42:15;15.10;99.90
23697;DHT22;48864;50.820;4.400;2022-10-22T03:44:41;15.20;99.90
23697;DHT22;48864;50.820;4.400;2022-10-22T03:47:13;15.20;99.90
23697;DHT22;48864;50.820;4.400;2022-10-22T03:49:39;15.30;99.90
23697;DHT22;48864;50.820;4.400;2022-10-22T03:52:09;15.30;99.90
23697;DHT22;48864;50.820;4.400;2022-10-22T03:54:35;15.20;99.90
23697;DHT22;48864;50.820;4.400;2022-10-22T03:57:02;15.30;99.90
23697;DHT22;48864;50.820;4.400;2022-10-22T03:59:28;15.20;99.90
23697;DHT22;48864;50.820;4.400;2022-10-22T04:01:53;15.20;99.90
23697;DHT22;48864;50.820;4.400;2022-10-22T04:04:19;15.20;99.90
23697;DHT22;48864;50.820;4.400;2022-10-22T04:06:44;15.10;99.90
23697;DHT22;48864;50.820;4.400;2022-10-22T04:09:10;15.10;99.90
23697;DHT22;48864;50.820;4.400;2022-10-22T04:11:35;15.10;99.90
23697;DHT22;48864;50.820;4.400;2022-10-22T04:14:01;15.10;99.90
23697;DHT22;48864;50.820;4.400;2022-10-22T04:16:26;15.10;99.90
23697;DHT22;48864;50.820;4.400;2022-10-22T04:18:57;15.10;99.90
23697;DHT22;48864;50.820;4.400;2022-10-22T04:21:23;15.10;99.90
23697;DHT22;48864;50.820;4.400;2022-10-22T04:23:51;15.20;99.90
23697;DHT22;48864;50.820;4.400;2022-10-22T04:26:18;15.30;99.90
23697;DHT22;48864;50.820;4.400;2022-10-22T04:28:45;15.20;99.90
23697;DHT22;48864;50.820;4.400;2022-10-22T04:31:13;15.30;99.90
23697;DHT22;48864;50.820;4.400;2022-10-22T04:33:39;15.40;99.90
23697;DHT22;48864;50.820;4.400;2022-10-22T04:36:13;15.30;99.90
23697;DHT22;48864;50.820;4.400;2022-10-22T04:38:40;15.30;99.90
23697;DHT22;48864;50.820;4.400;2022-10-22T04:41:16;15.30;99.90
23697;DHT22;48864;50.820;4.400;2022-10-22T04:43:42;15.40;99.90
23697;DHT22;48864;50.820;4.400;2022-10-22T04:46:10;15.30;99.90
23697;DHT22;48864;50.820;4.400;2022-10-22T04:48:37;15.40;99.90
23697;DHT22;48864;50.820;4.400;2022-10-22T04:51:04;15.40;99.90
23697;DHT22;48864;50.820;4.400;2022-10-22T04:53:31;15.50;99.90
23697;DHT22;48864;50.820;4.400;2022-10-22T04:56:10;15.50;99.90
23697;DHT22;48864;50.820;4.400;2022-10-22T04:58:36;15.30;99.90
23697;DHT22;48864;50.820;4.400;2022-10-22T05:01:32;15.30;99.90
23697;DHT22;48864;50.820;4.400;2022-10-22T05:04:00;15.30;99.90
23697;DHT22;48864;50.820;4.400;2022-10-22T05:06:27;15.30;99.90
23697;DHT22;48864;50.820;4.400;2022-10-22T05:08:55;15.30;99.90
23697;DHT22;48864;50.820;4.400;2022-10-22T05:11:30;15.40;99.90
23697;DHT22;48864;50.820;4.400;2022-10-22T05:13:57;15.40;99.90
23697;DHT22;48864;50.820;4.400;2022-10-22T05:16:23;15.40;99.90
23697;DHT22;48864;50.820;4.400;2022-10-22T05:18:49;15.40;99.90
23697;DHT22;48864;50.820;4.400;2022-10-22T05:21:19;15.50;99.90
23697;DHT22;48864;50.820;4.400;2022-10-22T05:23:46;15.40;99.90
23697;DHT22;48864;50.820;4.400;2022-10-22T05:26:14;15.40;99.90
23697;DHT22;48864;50.820;4.400;2022-10-22T05:28:58;15.40;99.90
23697;DHT22;48864;50.820;4.400;2022-10-22T05:31:24;15.50;99.90
23697;DHT22;48864;50.820;4.400;2022-10-22T05:33:50;15.50;99.90
23697;DHT22;48864;50.820;4.400;2022-10-22T05:36:20;15.50;99.90
23697;DHT22;48864;50.820;4.400;2022-10-22T05:38:46;15.50;99.90
23697;DHT22;48864;50.820;4.400;2022-10-22T05:41:21;15.60;99.90
23697;DHT22;48864;50.820;4.400;2022-10-22T05:43:47;15.60;99.90
23697;DHT22;48864;50.820;4.400;2022-10-22T05:46:18;15.70;99.90
23697;DHT22;48864;50.820;4.400;2022-10-22T05:48:48;15.50;99.90
23697;DHT22;48864;50.820;4.400;2022-10-22T05:51:15;15.60;99.90
23697;DHT22;48864;50.820;4.400;2022-10-22T05:53:41;15.50;99.90
23697;DHT22;48864;50.820;4.400;2022-10-22T05:59:27;15.40;99.90
23697;DHT22;48864;50.820;4.400;2022-10-22T06:01:55;15.40;99.90
23697;DHT22;48864;50.820;4.400;2022-10-22T06:04:21;15.40;99.90
23697;DHT22;48864;50.820;4.400;2022-10-22T06:06:52;15.40;99.90
23697;DHT22;48864;50.820;4.400;2022-10-22T06:09:30;15.40;99.90
23697;DHT22;48864;50.820;4.400;2022-10-22T06:11:58;15.30;99.90
23697;DHT22;48864;50.820;4.400;2022-10-22T06:14:27;15.40;99.90
23697;DHT22;48864;50.820;4.400;2022-10-22T06:16:53;15.40;99.90
23697;DHT22;48864;50.820;4.400;2022-10-22T06:19:21;15.50;99.90
23697;DHT22;48864;50.820;4.400;2022-10-22T06:21:50;15.50;99.90
23697;DHT22;48864;50.820;4.400;2022-10-22T06:24:15;15.40;99.90
23697;DHT22;48864;50.820;4.400;2022-10-22T06:26:43;15.20;99.90
23697;DHT22;48864;50.820;4.400;2022-10-22T06:29:08;15.20;99.90
23697;DHT22;48864;50.820;4.400;2022-10-22T06:31:34;15.40;99.90
23697;DHT22;48864;50.820;4.400;2022-10-22T06:34:06;15.30;99.90
23697;DHT22;48864;50.820;4.400;2022-10-22T06:36:33;15.30;99.90
23697;DHT22;48864;50.820;4.400;2022-10-22T06:38:59;15.40;99.90
23697;DHT22;48864;50.820;4.400;2022-10-22T06:41:26;15.50;99.90
23697;DHT22;48864;50.820;4.400;2022-10-22T06:43:52;15.40;99.90
23697;DHT22;48864;50.820;4.400;2022-10-22T06:46:20;15.30;99.90
23697;DHT22;48864;50.820;4.400;2022-10-22T06:48:57;15.30;99.90
23697;DHT22;48864;50.820;4.400;2022-10-22T06:51:25;15.30;99.90
23697;DHT22;48864;50.820;4.400;2022-10-22T06:53:51;15.30;99.90
23697;DHT22;48864;50.820;4.400;2022-10-22T06:56:19;15.40;99.90
23697;DHT22;48864;50.820;4.400;2022-10-22T06:58:49;15.50;99.90
23697;DHT22;48864;50.820;4.400;2022-10-22T07:01:17;15.60;99.90
23697;DHT22;48864;50.820;4.400;2022-10-22T07:03:43;15.50;99.90
23697;DHT22;48864;50.820;4.400;2022-10-22T07:06:12;15.40;99.90
23697;DHT22;48864;50.820;4.400;2022-10-22T07:08:40;15.40;99.90
23697;DHT22;48864;50.820;4.400;2022-10-22T07:11:07;15.30;99.90
23697;DHT22;48864;50.820;4.400;2022-10-22T07:13:33;15.50;99.90
23697;DHT22;48864;50.820;4.400;2022-10-22T07:15:59;15.60;99.90
23697;DHT22;48864;50.820;4.400;2022-10-22T07:18:25;15.60;99.90
23697;DHT22;48864;50.820;4.400;2022-10-22T07:20:50;15.60;99.90
23697;DHT22;48864;50.820;4.400;2022-10-22T07:23:16;15.50;99.90
23697;DHT22;48864;50.820;4.400;2022-10-22T07:25:43;15.40;99.90
23697;DHT22;48864;50.820;4.400;2022-10-22T07:28:09;15.60;99.90
23697;DHT22;48864;50.820;4.400;2022-10-22T07:30:36;15.60;99.90
23697;DHT22;48864;50.820;4.400;2022-10-22T07:33:02;15.60;99.90
23697;DHT22;48864;50.820;4.400;2022-10-22T07:35:28;15.60;99.90
23697;DHT22;48864;50.820;4.400;2022-10-22T07:37:53;15.70;99.90
23697;DHT22;48864;50.820;4.400;2022-10-22T07:40:19;15.80;99.90
23697;DHT22;48864;50.820;4.400;2022-10-22T07:42:44;15.80;99.90
23697;DHT22;48864;50.820;4.400;2022-10-22T07:45:10;15.70;99.90
23697;DHT22;48864;50.820;4.400;2022-10-22T07:47:36;15.60;99.90
23697;DHT22;48864;50.820;4.400;2022-10-22T07:50:02;15.60;99.90
23697;DHT22;48864;50.820;4.400;2022-10-22T07:52:28;15.50;99.90
23697;DHT22;48864;50.820;4.400;2022-10-22T07:54:53;15.50;99.90
23697;DHT22;48864;50.820;4.400;2022-10-22T07:57:19;15.50;99.90
23697;DHT22;48864;50.820;4.400;2022-10-22T07:59:45;15.60;99.90
23697;DHT22;48864;50.820;4.400;2022-10-22T08:02:11;15.70;99.90
23697;DHT22;48864;50.820;4.400;2022-10-22T08:04:38;15.70;99.90
23697;DHT22;48864;50.820;4.400;2022-10-22T08:07:04;15.70;99.90
23697;DHT22;48864;50.820;4.400;2022-10-22T08:09:31;15.80;99.90
23697;DHT22;48864;50.820;4.400;2022-10-22T08:11:57;15.70;99.90
23697;DHT22;48864;50.820;4.400;2022-10-22T08:14:23;15.80;99.90
23697;DHT22;48864;50.820;4.400;2022-10-22T08:16:49;15.80;99.90
23697;DHT22;48864;50.820;4.400;2022-10-22T08:19:14;15.80;99.90
23697;DHT22;48864;50.820;4.400;2022-10-22T08:21:47;15.80;99.90
23697;DHT22;48864;50.820;4.400;2022-10-22T08:24:13;15.80;99.90
23697;DHT22;48864;50.820;4.400;2022-10-22T08:26:39;15.80;99.90
23697;DHT22;48864;50.820;4.400;2022-10-22T08:29:06;15.70;99.90
23697;DHT22;48864;50.820;4.400;2022-10-22T08:31:32;15.80;99.90
23697;DHT22;48864;50.820;4.400;2022-10-22T08:33:58;15.80;99.90
23697;DHT22;48864;50.820;4.400;2022-10-22T08:36:24;15.80;99.90
23697;DHT22;48864;50.820;4.400;2022-10-22T08:38:49;15.80;99.90
23697;DHT22;48864;50.820;4.400;2022-10-22T08:41:17;15.90;99.90
23697;DHT22;48864;50.820;4.400;2022-10-22T08:44:09;15.90;99.90
23697;DHT22;48864;50.820;4.400;2022-10-22T08:49:25;15.80;99.90
23697;DHT22;48864;50.820;4.400;2022-10-22T08:51:51;15.70;99.90
23697;DHT22;48864;50.820;4.400;2022-10-22T08:57:33;15.80;99.90
23697;DHT22;48864;50.820;4.400;2022-10-22T09:00:30;15.90;99.90
23697;DHT22;48864;50.820;4.400;2022-10-22T09:08:22;16.00;99.90
23697;DHT22;48864;50.820;4.400;2022-10-22T09:11:01;16.00;99.90
23697;DHT22;48864;50.820;4.400;2022-10-22T09:13:28;16.00;99.90
23697;DHT22;48864;50.820;4.400;2022-10-22T09:15:58;16.00;99.90
23697;DHT22;48864;50.820;4.400;2022-10-22T09:18:50;16.20;99.90
23697;DHT22;48864;50.820;4.400;2022-10-22T09:26:57;16.20;99.90
23697;DHT22;48864;50.820;4.400;2022-10-22T09:29:33;16.10;99.90
23697;DHT22;48864;50.820;4.400;2022-10-22T09:31:59;16.10;99.90
23697;DHT22;48864;50.820;4.400;2022-10-22T09:34:28;16.10;99.90
23697;DHT22;48864;50.820;4.400;2022-10-22T09:37:02;16.10;99.90
23697;DHT22;48864;50.820;4.400;2022-10-22T09:39:32;16.20;99.90
23697;DHT22;48864;50.820;4.400;2022-10-22T09:42:13;16.30;99.90
23697;DHT22;48864;50.820;4.400;2022-10-22T09:44:40;16.30;99.90
23697;DHT22;48864;50.820;4.400;2022-10-22T09:47:31;16.30;99.90
23697;DHT22;48864;50.820;4.400;2022-10-22T09:55:40;16.20;99.90
23697;DHT22;48864;50.820;4.400;2022-10-22T09:58:10;16.40;99.90
23697;DHT22;48864;50.820;4.400;2022-10-22T10:00:38;16.40;99.90
23697;DHT22;48864;50.820;4.400;2022-10-22T10:03:04;16.50;99.90
23697;DHT22;48864;50.820;4.400;2022-10-22T10:05:32;16.40;99.90
23697;DHT22;48864;50.820;4.400;2022-10-22T10:08:06;16.40;99.90
23697;DHT22;48864;50.820;4.400;2022-10-22T10:13:50;16.30;99.90
23697;DHT22;48864;50.820;4.400;2022-10-22T10:16:45;16.50;99.90
23697;DHT22;48864;50.820;4.400;2022-10-22T10:27:37;16.50;99.90
23697;DHT22;48864;50.820;4.400;2022-10-22T10:40:56;16.70;99.90
23697;DHT22;48864;50.820;4.400;2022-10-22T10:43:48;16.80;99.90
23697;DHT22;48864;50.820;4.400;2022-10-22T10:48:53;16.90;99.90
23697;DHT22;48864;50.820;4.400;2022-10-22T10:54:06;17.20;99.90
23697;DHT22;48864;50.820;4.400;2022-10-22T10:56:50;17.30;99.90
23697;DHT22;48864;50.820;4.400;2022-10-22T10:59:35;17.40;99.90
23697;DHT22;48864;50.820;4.400;2022-10-22T11:05:10;17.40;99.90
23697;DHT22;48864;50.820;4.400;2022-10-22T11:07:45;17.30;99.90
23697;DHT22;48864;50.820;4.400;2022-10-22T11:13:30;17.40;99.90
23697;DHT22;48864;50.820;4.400;2022-10-22T11:16:11;17.50;99.90
23697;DHT22;48864;50.820;4.400;2022-10-22T11:18:50;17.40;99.90
23697;DHT22;48864;50.820;4.400;2022-10-22T11:29:04;17.40;99.90
23697;DHT22;48864;50.820;4.400;2022-10-22T11:31:33;17.60;99.90
23697;DHT22;48864;50.820;4.400;2022-10-22T11:36:45;17.40;99.90
23697;DHT22;48864;50.820;4.400;2022-10-22T11:39:32;17.50;99.90
23697;DHT22;48864;50.820;4.400;2022-10-22T11:42:02;17.40;99.90
23697;DHT22;48864;50.820;4.400;2022-10-22T11:44:28;17.40;99.90
23697;DHT22;48864;50.820;4.400;2022-10-22T11:47:28;17.40;99.90
23697;DHT22;48864;50.820;4.400;2022-10-22T11:55:31;17.90;99.90
23697;DHT22;48864;50.820;4.400;2022-10-22T11:58:05;17.90;99.90
23697;DHT22;48864;50.820;4.400;2022-10-22T12:00:48;18.00;99.90
23697;DHT22;48864;50.820;4.400;2022-10-22T12:03:23;18.20;99.90
23697;DHT22;48864;50.820;4.400;2022-10-22T12:08:43;18.10;99.90
23697;DHT22;48864;50.820;4.400;2022-10-22T12:16:28;18.40;99.90
23697;DHT22;48864;50.820;4.400;2022-10-22T12:19:29;18.50;99.90
23697;DHT22;48864;50.820;4.400;2022-10-22T12:22:18;18.60;99.90
23697;DHT22;48864;50.820;4.400;2022-10-22T12:24:47;18.50;99.90
23697;DHT22;48864;50.820;4.400;2022-10-22T12:27:41;18.50;99.90
23697;DHT22;48864;50.820;4.400;2022-10-22T12:32:44;18.40;99.90
23697;DHT22;48864;50.820;4.400;2022-10-22T12:35:22;18.40;99.90
23697;DHT22;48864;50.820;4.400;2022-10-22T12:37:54;18.40;99.90
23697;DHT22;48864;50.820;4.400;2022-10-22T12:40:26;18.30;99.90
23697;DHT22;48864;50.820;4.400;2022-10-22T12:42:53;18.30;99.90
23697;DHT22;48864;50.820;4.400;2022-10-22T12:45:21;18.50;99.90
23697;DHT22;48864;50.820;4.400;2022-10-22T12:47:50;18.70;99.90
23697;DHT22;48864;50.820;4.400;2022-10-22T12:50:32;18.80;99.90
23697;DHT22;48864;50.820;4.400;2022-10-22T12:52:59;18.80;99.90
23697;DHT22;48864;50.820;4.400;2022-10-22T12:55:25;18.90;99.90
23697;DHT22;48864;50.820;4.400;2022-10-22T12:57:52;19.00;99.90
23697;DHT22;48864;50.820;4.400;2022-10-22T13:00:32;19.10;99.90
23697;DHT22;48864;50.820;4.400;2022-10-22T13:03:01;19.20;99.90
23697;DHT22;48864;50.820;4.400;2022-10-22T13:05:31;19.40;99.90
23697;DHT22;48864;50.820;4.400;2022-10-22T13:08:08;19.50;99.90
23697;DHT22;48864;50.820;4.400;2022-10-22T13:10:37;19.60;99.90
23697;DHT22;48864;50.820;4.400;2022-10-22T13:13:03;19.50;99.90
23697;DHT22;48864;50.820;4.400;2022-10-22T13:18:16;19.50;99.90
23697;DHT22;48864;50.820;4.400;2022-10-22T13:21:00;19.20;99.90
23697;DHT22;48864;50.820;4.400;2022-10-22T13:23:29;19.40;99.90
23697;DHT22;48864;50.820;4.400;2022-10-22T13:28:26;19.80;99.90
23697;DHT22;48864;50.820;4.400;2022-10-22T13:31:01;19.90;99.90
23697;DHT22;48864;50.820;4.400;2022-10-22T13:33:57;20.00;99.90
23697;DHT22;48864;50.820;4.400;2022-10-22T13:36:23;20.10;99.90
23697;DHT22;48864;50.820;4.400;2022-10-22T13:38:49;19.70;99.90
23697;DHT22;48864;50.820;4.400;2022-10-22T13:43:50;19.40;99.90
23697;DHT22;48864;50.820;4.400;2022-10-22T13:46:18;19.50;99.90
23697;DHT22;48864;50.820;4.400;2022-10-22T13:48:45;19.50;99.90
23697;DHT22;48864;50.820;4.400;2022-10-22T13:51:19;19.50;99.90
23697;DHT22;48864;50.820;4.400;2022-10-22T13:53:46;19.40;99.90
23697;DHT22;48864;50.820;4.400;2022-10-22T13:56:13;19.30;99.90
23697;DHT22;48864;50.820;4.400;2022-10-22T13:58:40;19.40;99.90
23697;DHT22;48864;50.820;4.400;2022-10-22T14:01:22;19.60;99.90
23697;DHT22;48864;50.820;4.400;2022-10-22T14:03:49;20.10;99.90
23697;DHT22;48864;50.820;4.400;2022-10-22T14:06:17;20.70;99.90
23697;DHT22;48864;50.820;4.400;2022-10-22T14:08:46;21.00;99.90
23697;DHT22;48864;50.820;4.400;2022-10-22T14:11:13;21.00;99.90
23697;DHT22;48864;50.820;4.400;2022-10-22T14:13:39;21.20;99.90
23697;DHT22;48864;50.820;4.400;2022-10-22T14:16:06;21.10;99.90
23697;DHT22;48864;50.820;4.400;2022-10-22T14:18:34;20.80;99.90
23697;DHT22;48864;50.820;4.400;2022-10-22T14:21:02;20.50;99.90
23697;DHT22;48864;50.820;4.400;2022-10-22T14:23:33;20.60;99.90
23697;DHT22;48864;50.820;4.400;2022-10-22T14:26:02;20.20;99.90
23697;DHT22;48864;50.820;4.400;2022-10-22T14:28:29;20.30;99.90
23697;DHT22;48864;50.820;4.400;2022-10-22T14:30:55;20.30;99.90
23697;DHT22;48864;50.820;4.400;2022-10-22T14:33:24;20.40;99.90
23697;DHT22;48864;50.820;4.400;2022-10-22T14:35:51;20.50;99.90
23697;DHT22;48864;50.820;4.400;2022-10-22T14:38:17;20.60;99.90
23697;DHT22;48864;50.820;4.400;2022-10-22T14:40:43;20.70;99.90
23697;DHT22;48864;50.820;4.400;2022-10-22T14:43:24;20.80;99.90
23697;DHT22;48864;50.820;4.400;2022-10-22T14:45:51;20.50;99.90
23697;DHT22;48864;50.820;4.400;2022-10-22T14:48:17;20.40;99.90
23697;DHT22;48864;50.820;4.400;2022-10-22T14:50:46;20.60;99.90
23697;DHT22;48864;50.820;4.400;2022-10-22T14:53:14;20.80;99.90
23697;DHT22;48864;50.820;4.400;2022-10-22T14:55:42;20.80;99.90
23697;DHT22;48864;50.820;4.400;2022-10-22T14:58:09;20.80;99.90
23697;DHT22;48864;50.820;4.400;2022-10-22T15:00:35;20.60;99.90
23697;DHT22;48864;50.820;4.400;2022-10-22T15:03:02;20.40;99.90
23697;DHT22;48864;50.820;4.400;2022-10-22T15:05:28;20.20;99.90
23697;DHT22;48864;50.820;4.400;2022-10-22T15:07:53;20.10;99.90
23697;DHT22;48864;50.820;4.400;2022-10-22T15:10:19;20.20;99.90
23697;DHT22;48864;50.820;4.400;2022-10-22T15:12:45;20.20;99.90
23697;DHT22;48864;50.820;4.400;2022-10-22T15:15:11;20.30;99.90
23697;DHT22;48864;50.820;4.400;2022-10-22T15:17:36;20.20;99.90
23697;DHT22;48864;50.820;4.400;2022-10-22T15:20:03;20.20;99.90
23697;DHT22;48864;50.820;4.400;2022-10-22T15:22:31;20.10;99.90
23697;DHT22;48864;50.820;4.400;2022-10-22T15:25:04;20.10;99.90
23697;DHT22;48864;50.820;4.400;2022-10-22T15:27:29;20.20;99.90
23697;DHT22;48864;50.820;4.400;2022-10-22T15:29:55;20.20;99.90
23697;DHT22;48864;50.820;4.400;2022-10-22T15:32:24;20.10;99.90
23697;DHT22;48864;50.820;4.400;2022-10-22T15:34:51;20.00;99.90
23697;DHT22;48864;50.820;4.400;2022-10-22T15:37:19;20.10;99.90
23697;DHT22;48864;50.820;4.400;2022-10-22T15:39:44;20.20;99.90
23697;DHT22;48864;50.820;4.400;2022-10-22T15:42:10;20.20;99.90
23697;DHT22;48864;50.820;4.400;2022-10-22T15:44:36;20.10;99.90
23697;DHT22;48864;50.820;4.400;2022-10-22T15:47:05;20.10;99.90
23697;DHT22;48864;50.820;4.400;2022-10-22T15:49:33;20.10;99.90
23697;DHT22;48864;50.820;4.400;2022-10-22T15:51:59;19.90;99.90
23697;DHT22;48864;50.820;4.400;2022-10-22T15:54:26;19.90;99.90
23697;DHT22;48864;50.820;4.400;2022-10-22T15:56:54;19.90;99.90
23697;DHT22;48864;50.820;4.400;2022-10-22T15:59:20;19.80;99.90
23697;DHT22;48864;50.820;4.400;2022-10-22T16:01:46;19.70;99.90
23697;DHT22;48864;50.820;4.400;2022-10-22T16:04:12;19.90;99.90
23697;DHT22;48864;50.820;4.400;2022-10-22T16:06:45;19.90;99.90
23697;DHT22;48864;50.820;4.400;2022-10-22T16:09:15;19.80;99.90
23697;DHT22;48864;50.820;4.400;2022-10-22T16:11:42;20.00;99.90
23697;DHT22;48864;50.820;4.400;2022-10-22T16:14:10;20.10;99.90
23697;DHT22;48864;50.820;4.400;2022-10-22T16:16:37;20.20;99.90
23697;DHT22;48864;50.820;4.400;2022-10-22T16:19:07;20.00;99.90
23697;DHT22;48864;50.820;4.400;2022-10-22T16:21:34;20.10;99.90
23697;DHT22;48864;50.820;4.400;2022-10-22T16:24:00;20.00;99.90
23697;DHT22;48864;50.820;4.400;2022-10-22T16:26:26;19.80;99.90
23697;DHT22;48864;50.820;4.400;2022-10-22T16:28:52;19.90;99.90
23697;DHT22;48864;50.820;4.400;2022-10-22T16:31:17;19.90;99.90
23697;DHT22;48864;50.820;4.400;2022-10-22T16:33:46;19.80;99.90
23697;DHT22;48864;50.820;4.400;2022-10-22T16:36:14;19.90;99.90
23697;DHT22;48864;50.820;4.400;2022-10-22T16:38:45;19.90;99.90
23697;DHT22;48864;50.820;4.400;2022-10-22T16:41:21;19.90;99.90
23697;DHT22;48864;50.820;4.400;2022-10-22T16:43:49;19.90;99.90
23697;DHT22;48864;50.820;4.400;2022-10-22T16:46:16;19.90;99.90
23697;DHT22;48864;50.820;4.400;2022-10-22T16:48:50;19.80;99.90
23697;DHT22;48864;50.820;4.400;2022-10-22T16:51:20;19.60;99.90
23697;DHT22;48864;50.820;4.400;2022-10-22T16:53:46;19.60;99.90
23697;DHT22;48864;50.820;4.400;2022-10-22T16:56:14;19.60;99.90
23697;DHT22;48864;50.820;4.400;2022-10-22T16:58:54;19.70;99.90
23697;DHT22;48864;50.820;4.400;2022-10-22T17:01:21;19.80;99.90
23697;DHT22;48864;50.820;4.400;2022-10-22T17:03:47;19.80;99.90
23697;DHT22;48864;50.820;4.400;2022-10-22T17:06:13;19.80;99.90
23697;DHT22;48864;50.820;4.400;2022-10-22T17:08:40;19.80;99.90
23697;DHT22;48864;50.820;4.400;2022-10-22T17:11:09;19.90;99.90
23697;DHT22;48864;50.820;4.400;2022-10-22T17:13:36;19.90;99.90
23697;DHT22;48864;50.820;4.400;2022-10-22T17:16:04;19.90;99.90
23697;DHT22;48864;50.820;4.400;2022-10-22T17:18:31;19.90;99.90
23697;DHT22;48864;50.820;4.400;2022-10-22T17:20:57;19.90;99.90
23697;DHT22;48864;50.820;4.400;2022-10-22T17:23:27;19.90;99.90
23697;DHT22;48864;50.820;4.400;2022-10-22T17:26:07;20.00;99.90
23697;DHT22;48864;50.820;4.400;2022-10-22T17:28:34;19.90;99.90
23697;DHT22;48864;50.820;4.400;2022-10-22T17:31:22;19.70;99.90
23697;DHT22;48864;50.820;4.400;2022-10-22T17:33:50;19.60;99.90
23697;DHT22;48864;50.820;4.400;2022-10-22T17:36:18;19.50;99.90
23697;DHT22;48864;50.820;4.400;2022-10-22T17:38:48;19.30;99.90